Main page
METAR-TAF:

METAR-TAF

Airports :

Lar, Iran

Larestan International Airport

latitude: 27-40-26N, longitude: 054-22-53E, elevation: 792 m

Current weather observation

The report was made 1 hour and 0 minutes ago, at 09:00 UTC
Wind 12 kt from the North/Northwest
Temperature 33°C
Humidity 15%
Pressure 1012 hPa
Visibility 10 km or more
no clouds below 1500 m and no cumulonimbus

METAR: OISL 220900Z 33012KT CAVOK 33/03 Q1012

Time: 13:30 (10:00 UTC)

Forecast

The report was made 4 hours and 30 minutes ago, at 05:30 UTC
Forecast valid from 22 at 06 UTC to 23 at 12 UTC
Wind 4 kt from variable directions
Visibility 10 km or more
no clouds below 1500 m and no cumulonimbus
Temporary
from 22 at 09 UTC to 22 at 15 UTC
Wind 14 kt from the Northwest
Temporary
from 23 at 09 UTC to 23 at 12 UTC
Wind 14 kt from the West

TAF: OISL 220530Z 2206/2312 VRB02MPS CAVOK TEMPO 2209/2215 32007MPS TEMPO 2309/2312 26007MPS

Weather observations and forecasts of more than 4000 airports (METAR and TAF reports).

The available stations are represented by yellow and red dots on the map.

Hover mouse over dot to see the name of the station.

Then click to see weather observations and forecasts.

To change the map : click on the green buttons with a black cross to zoom in, on the green button with a dash to zoom out, or on the green arrows for adjacent maps.


METAR-TAF: